createdAt,value
2023-03-06T00:04:08.839Z,25.44
2023-03-06T00:24:08.719Z,25.43
2023-03-06T01:04:08.726Z,25.43
2023-03-06T01:44:08.744Z,25.43
2023-03-06T02:04:08.747Z,25.43
2023-03-06T02:44:08.789Z,25.4
2023-03-06T03:04:08.817Z,25.4
2023-03-06T03:24:08.763Z,25.4
2023-03-06T03:44:08.780Z,25.39
2023-03-06T04:24:08.808Z,25.41
2023-03-06T04:44:08.039Z,25.44
2023-03-06T08:24:08.880Z,25.39
2023-03-06T09:04:08.900Z,25.39
2023-03-06T09:24:08.893Z,25.39
2023-03-06T10:04:08.912Z,25.39
2023-03-06T10:24:08.909Z,25.39
2023-03-06T10:44:08.915Z,25.39
2023-03-06T11:04:08.982Z,25.39
2023-03-06T11:24:08.159Z,25.39
2023-03-06T11:44:08.926Z,25.39
2023-03-06T12:04:08.941Z,25.38
2023-03-06T12:24:08.935Z,25.39
2023-03-06T12:44:08.933Z,25.39
2023-03-06T13:04:08.928Z,25.39
2023-03-06T13:24:08.930Z,25.38
2023-03-06T13:44:08.901Z,25.38
2023-03-06T14:04:08.391Z,25.38
2023-03-06T14:24:08.390Z,25.38
2023-03-06T14:44:08.923Z,25.39
2023-03-06T15:04:08.890Z,25.38
2023-03-06T15:24:08.923Z,25.38
2023-03-06T15:44:08.874Z,25.38
2023-03-06T16:04:08.882Z,25.38
2023-03-06T16:24:08.742Z,25.37
2023-03-06T16:44:08.870Z,25.38
2023-03-06T17:04:08.874Z,25.37
2023-03-06T17:24:08.406Z,25.37
2023-03-06T18:04:08.104Z,25.37
2023-03-06T18:24:08.922Z,25.37
2023-03-06T18:44:08.905Z,25.37
2023-03-06T19:04:08.954Z,25.37
2023-03-06T19:24:08.147Z,25.36
2023-03-06T19:44:08.908Z,25.37
2023-03-06T20:24:08.158Z,25.36
2023-03-06T20:44:08.925Z,25.37
2023-03-06T21:04:08.426Z,25.36
2023-03-06T21:24:08.954Z,25.36
2023-03-06T21:44:08.938Z,25.36
2023-03-06T22:04:08.964Z,25.36
2023-03-06T22:24:08.180Z,25.37
2023-03-06T22:44:08.450Z,25.36
2023-03-06T23:24:08.970Z,25.36
2023-03-06T23:44:08.279Z,25.36
